La Grange, Missouri
Current Conditions -  °F | °C
As of 5:54 PM on Sunday 21 Dec 2014 (Local Time) from KUIN Reporting Station
Overcast Overcast  
Wind Chill: 33°   Ceiling: 2200
Heat Index: 41°   Visibility: 10mi
Dew Point: 33°   Wind: 14mph
Humidity: 73%   Direction: 150°SSE
Pressure: 29.95"   Gusts: NA
Location:  40.04°N, 91.5°W
Report Text: KUIN 212354Z AUTO 15012KT 10SM OVC022 05/01 A2995 RMK AO2 SLP145 T00500006 10067 20050 56005
Loading
Personal Weather Stations






























Interactive Weather Map New forecast layout! Learn more

10-Day Weather Forecast

Advertisements
Track Severe Weather on mobile